createdAt,value
2018-02-13T00:00:00.271Z,97308
2018-02-13T00:02:29.854Z,97310
2018-02-13T00:04:58.014Z,97304
2018-02-13T00:07:26.173Z,97308
2018-02-13T00:09:55.119Z,97313
2018-02-13T00:12:23.293Z,97309
2018-02-13T00:14:51.469Z,97306
2018-02-13T00:17:19.634Z,97302
2018-02-13T00:19:47.789Z,97306
2018-02-13T00:22:15.966Z,97301
2018-02-13T00:24:44.132Z,97298
2018-02-13T00:27:12.313Z,97299
2018-02-13T00:29:40.478Z,97297
2018-02-13T00:32:08.646Z,97295
2018-02-13T00:34:37.594Z,97286
2018-02-13T00:37:05.766Z,97287
2018-02-13T00:39:33.947Z,97282
2018-02-13T00:42:02.114Z,97287
2018-02-13T00:44:30.280Z,97283
2018-02-13T00:46:58.439Z,97281
2018-02-13T00:49:26.621Z,97277
2018-02-13T00:51:54.786Z,97274
2018-02-13T00:54:22.938Z,97281
2018-02-13T00:56:51.119Z,97283
2018-02-13T00:59:19.290Z,97282
2018-02-13T01:01:47.467Z,97279
2018-02-13T01:04:15.629Z,97288
2018-02-13T01:06:44.570Z,97279
2018-02-13T01:09:12.726Z,97281
2018-02-13T01:11:40.882Z,97286
2018-02-13T01:14:09.053Z,97284
2018-02-13T01:16:37.230Z,97285
2018-02-13T01:19:05.387Z,97292
2018-02-13T01:21:34.331Z,97293
2018-02-13T01:24:02.511Z,97282
2018-02-13T01:26:30.675Z,97282
2018-02-13T01:28:58.836Z,97290
2018-02-13T01:31:27.002Z,97285
2018-02-13T01:33:55.183Z,97292
2018-02-13T01:36:23.362Z,97287
2018-02-13T01:38:51.553Z,97289
2018-02-13T01:41:19.714Z,97289
2018-02-13T01:43:47.874Z,97293
2018-02-13T01:46:16.033Z,97290
2018-02-13T01:48:44.974Z,97292
2018-02-13T01:51:13.124Z,97291
2018-02-13T01:53:41.284Z,97296
2018-02-13T01:56:09.461Z,97292
2018-02-13T01:58:37.621Z,97295
2018-02-13T02:01:06.552Z,97293
2018-02-13T02:03:34.725Z,97289
2018-02-13T02:06:02.877Z,97286
2018-02-13T02:08:31.055Z,97288
2018-02-13T02:10:59.237Z,97288
2018-02-13T02:13:27.398Z,97291
2018-02-13T02:15:55.564Z,97284
2018-02-13T02:18:23.737Z,97286
2018-02-13T02:20:51.898Z,97285
2018-02-13T02:23:20.845Z,97281
2018-02-13T03:47:46.710Z,97280
2018-02-13T03:50:14.865Z,97283
2018-02-13T03:52:43.047Z,97277
2018-02-13T03:55:11.237Z,97277
2018-02-13T03:57:39.417Z,97279
2018-02-13T04:00:07.597Z,97281
2018-02-13T04:02:35.788Z,97276
2018-02-13T04:05:04.021Z,97275
2018-02-13T04:07:32.198Z,97275
2018-02-13T04:10:00.353Z,97280
2018-02-13T04:12:29.289Z,97278
2018-02-13T04:14:57.458Z,97290
2018-02-13T04:17:25.628Z,97287
2018-02-13T04:19:53.787Z,97282
2018-02-13T04:22:22.008Z,97276
2018-02-13T04:24:50.165Z,97282
2018-02-13T04:27:18.326Z,97283
2018-02-13T04:29:46.488Z,97277
2018-02-13T04:32:14.666Z,97280
2018-02-13T04:34:42.848Z,97273
2018-02-13T04:37:11.001Z,97273
2018-02-13T04:39:39.241Z,97270
2018-02-13T04:42:07.353Z,97273
2018-02-13T04:44:35.526Z,97267
2018-02-13T04:47:03.692Z,97268
2018-02-13T04:49:32.622Z,97273
2018-02-13T04:52:00.779Z,97271
2018-02-13T04:54:28.964Z,97275
2018-02-13T04:56:57.153Z,97273
2018-02-13T04:59:25.325Z,97268
2018-02-13T05:01:53.488Z,97275
2018-02-13T05:04:21.660Z,97271
2018-02-13T05:06:49.820Z,97264
2018-02-13T05:09:17.985Z,97272
2018-02-13T05:11:46.148Z,97272
2018-02-13T05:14:15.076Z,97268
2018-02-13T05:16:43.251Z,97259
2018-02-13T05:19:11.858Z,97261
2018-02-13T05:21:40.014Z,97267
2018-02-13T05:24:08.197Z,97260
2018-02-13T05:26:36.373Z,97255
2018-02-13T05:29:04.545Z,97259
2018-02-13T05:31:32.708Z,97255
2018-02-13T05:34:00.867Z,97256
2018-02-13T05:36:29.041Z,97257
2018-02-13T05:38:57.230Z,97259
2018-02-13T05:41:25.378Z,97264
2018-02-13T05:43:54.319Z,97262
2018-02-13T05:46:22.508Z,97266
2018-02-13T05:48:50.670Z,97273
2018-02-13T05:51:18.833Z,97273
2018-02-13T05:53:46.998Z,97273
2018-02-13T05:56:15.175Z,97271
2018-02-13T05:58:43.357Z,97278
2018-02-13T06:01:11.645Z,97279
2018-02-13T06:03:39.829Z,97281
2018-02-13T06:06:07.983Z,97285
2018-02-13T06:08:36.157Z,97284
2018-02-13T06:11:04.325Z,97283
2018-02-13T06:13:32.491Z,97279
2018-02-13T06:16:00.665Z,97290
2018-02-13T06:18:28.830Z,97286
2018-02-13T06:20:56.986Z,97291
2018-02-13T06:23:25.938Z,97279
2018-02-13T06:25:54.133Z,97286
2018-02-13T06:28:22.326Z,97284
2018-02-13T06:30:51.305Z,97283
2018-02-13T06:33:20.250Z,97288
2018-02-13T06:35:48.402Z,97290
2018-02-13T06:38:16.562Z,97290
2018-02-13T06:40:45.489Z,97284
2018-02-13T06:43:13.680Z,97293
2018-02-13T06:45:41.877Z,97292
2018-02-13T06:48:10.050Z,97292
2018-02-13T06:50:38.220Z,97290
2018-02-13T06:53:06.397Z,97294
2018-02-13T06:55:34.565Z,97295
2018-02-13T06:58:02.730Z,97293
2018-02-13T07:00:30.918Z,97295
2018-02-13T07:02:59.103Z,97300
2018-02-13T07:05:27.312Z,97297
2018-02-13T07:07:56.259Z,97295
2018-02-13T07:10:24.439Z,97292
2018-02-13T07:12:52.609Z,97294
2018-02-13T07:15:20.775Z,97297
2018-02-13T07:17:49.016Z,97301
2018-02-13T07:20:17.225Z,97293
2018-02-13T07:22:45.406Z,97296
2018-02-13T07:25:13.607Z,97294
2018-02-13T07:27:41.789Z,97294
2018-02-13T07:30:10.730Z,97303
2018-02-13T07:32:38.901Z,97293
2018-02-13T07:35:07.061Z,97295
2018-02-13T07:37:35.226Z,97296
2018-02-13T07:40:03.420Z,97298
2018-02-13T07:42:31.575Z,97291
2018-02-13T07:44:59.769Z,97292
2018-02-13T07:47:27.939Z,97296
2018-02-13T07:49:56.109Z,97293
2018-02-13T07:52:24.289Z,97294
2018-02-13T07:54:52.466Z,97287
2018-02-13T07:57:20.638Z,97294
2018-02-13T07:59:48.814Z,97293
2018-02-13T08:02:17.034Z,97292
2018-02-13T08:04:45.170Z,97288
2018-02-13T08:07:13.362Z,97288
2018-02-13T08:09:41.527Z,97287
2018-02-13T08:12:09.686Z,97287
2018-02-13T08:14:37.856Z,97289
2018-02-13T08:17:06.031Z,97287
2018-02-13T08:19:34.187Z,97285
2018-02-13T08:22:02.392Z,97287
2018-02-13T08:24:30.558Z,97287
2018-02-13T08:26:58.721Z,97279
2018-02-13T08:29:26.888Z,97280
2018-02-13T08:31:55.061Z,97284
2018-02-13T08:34:23.258Z,97283
2018-02-13T08:36:51.437Z,97283
2018-02-13T08:39:19.608Z,97279
2018-02-13T08:41:47.810Z,97277
2018-02-13T08:44:16.008Z,97283
2018-02-13T08:46:44.936Z,97282
2018-02-13T08:49:13.127Z,97278
2018-02-13T08:51:41.338Z,97272
2018-02-13T08:54:09.493Z,97274
2018-02-13T08:56:37.653Z,97272
2018-02-13T08:59:05.843Z,97260
2018-02-13T09:01:34.047Z,97257
2018-02-13T09:04:03.009Z,97265
2018-02-13T09:06:31.170Z,97254
2018-02-13T09:09:00.105Z,97248
2018-02-13T09:11:29.037Z,97251
2018-02-13T09:13:57.219Z,97246
2018-02-13T09:16:25.379Z,97243
2018-02-13T09:18:53.563Z,97242
2018-02-13T09:21:21.746Z,97244
2018-02-13T09:23:49.917Z,97237
2018-02-13T09:26:18.069Z,97232
2018-02-13T09:28:46.241Z,97236
2018-02-13T09:31:14.416Z,97236
2018-02-13T09:33:42.594Z,97233
2018-02-13T09:36:10.758Z,97230
2018-02-13T09:38:39.725Z,97232
2018-02-13T09:41:07.909Z,97232
2018-02-13T09:43:36.083Z,97225
2018-02-13T09:46:05.081Z,97235
2018-02-13T09:48:34.016Z,97238
2018-02-13T09:51:02.213Z,97233
2018-02-13T09:53:30.369Z,97232
2018-02-13T09:55:58.532Z,97237
2018-02-13T09:58:26.691Z,97232
2018-02-13T10:00:54.863Z,97228
2018-02-13T10:03:23.069Z,97225
2018-02-13T10:05:51.268Z,97230
2018-02-13T10:08:19.452Z,97229
2018-02-13T10:10:47.620Z,97221
2018-02-13T10:13:15.797Z,97220
2018-02-13T10:15:43.978Z,97223
2018-02-13T10:18:12.182Z,97221
2018-02-13T10:20:40.392Z,97217
2018-02-13T10:23:08.562Z,97210
2018-02-13T10:25:36.724Z,97214
2018-02-13T10:28:04.883Z,97206
2018-02-13T10:30:33.060Z,97203
2018-02-13T10:33:01.238Z,97205
2018-02-13T10:35:29.458Z,97203
2018-02-13T10:37:58.410Z,97201
2018-02-13T10:40:26.612Z,97199
2018-02-13T10:42:54.803Z,97192
2018-02-13T10:45:23.009Z,97191
2018-02-13T10:47:51.941Z,97198
2018-02-13T10:50:20.123Z,97198
2018-02-13T10:52:48.326Z,97190
2018-02-13T10:55:16.547Z,97193
2018-02-13T10:57:44.702Z,97192
2018-02-13T11:00:13.662Z,97190
2018-02-13T11:02:41.861Z,97185
2018-02-13T11:05:16.200Z,97187
2018-02-13T11:07:45.335Z,97178
2018-02-13T11:10:13.495Z,97177
2018-02-13T11:12:41.676Z,97178
2018-02-13T11:15:09.869Z,97172
2018-02-13T11:17:38.108Z,97171
2018-02-13T11:20:06.291Z,97166
2018-02-13T11:22:34.482Z,97164
2018-02-13T11:25:02.675Z,97164
2018-02-13T11:27:30.862Z,97157
2018-02-13T11:30:00.548Z,97157
2018-02-13T11:32:28.737Z,97153
2018-02-13T11:34:56.938Z,97146
2018-02-13T11:37:25.139Z,97149
2018-02-13T11:39:53.309Z,97146
2018-02-13T11:42:22.290Z,97144
2018-02-13T11:44:51.227Z,97134
2018-02-13T11:47:19.468Z,97129
2018-02-13T11:49:48.451Z,97133
2018-02-13T11:52:17.395Z,97133
2018-02-13T11:54:45.658Z,97125
2018-02-13T11:57:13.872Z,97119
2018-02-13T11:59:42.091Z,97122
2018-02-13T12:02:13.205Z,97120
2018-02-13T12:04:41.423Z,97118
2018-02-13T12:07:10.275Z,97115
2018-02-13T12:09:43.093Z,97112
2018-02-13T12:12:11.505Z,97106
2018-02-13T12:14:39.754Z,97105
2018-02-13T12:17:07.922Z,97105
2018-02-13T12:19:40.646Z,97103
2018-02-13T12:22:09.948Z,97095
2018-02-13T12:24:38.129Z,97095
2018-02-13T12:27:06.321Z,97098
2018-02-13T12:29:40.688Z,97087
2018-02-13T12:32:11.247Z,97087
2018-02-13T12:34:39.510Z,97082
2018-02-13T12:37:07.726Z,97078
2018-02-13T12:39:42.561Z,97078
2018-02-13T12:42:11.884Z,97077
2018-02-13T12:44:40.266Z,97077
2018-02-13T12:47:13.316Z,97073
2018-02-13T12:49:41.551Z,97077
2018-02-13T12:52:09.843Z,97068
2018-02-13T12:54:40.608Z,97072
2018-02-13T12:57:14.092Z,97071
2018-02-13T12:59:42.569Z,97066
2018-02-13T13:02:11.041Z,97066
2018-02-13T13:04:44.295Z,97069
2018-02-13T13:07:12.727Z,97068
2018-02-13T13:09:40.916Z,97066
2018-02-13T13:12:09.319Z,97067
2018-02-13T13:14:39.079Z,97065
2018-02-13T13:17:13.036Z,97061
2018-02-13T13:19:42.260Z,97058
2018-02-13T13:22:10.776Z,97054
2018-02-13T13:24:42.717Z,97057
2018-02-13T13:27:11.720Z,97057
2018-02-13T13:29:40.194Z,97054
2018-02-13T13:32:08.775Z,97054
2018-02-13T13:34:37.115Z,97049
2018-02-13T13:37:06.205Z,97049
2018-02-13T13:39:35.276Z,97044
2018-02-13T13:42:03.652Z,97045
2018-02-13T13:44:31.890Z,97037
2018-02-13T13:47:00.271Z,97042
2018-02-13T13:49:28.590Z,97034
2018-02-13T13:51:56.810Z,97031
2018-02-13T13:54:25.171Z,97030
2018-02-13T13:56:54.469Z,97035
2018-02-13T13:59:23.544Z,97031
2018-02-13T14:01:51.788Z,97030
2018-02-13T14:04:20.063Z,97031
2018-02-13T14:06:48.308Z,97028
2018-02-13T14:09:17.257Z,97026
2018-02-13T14:11:45.545Z,97023
2018-02-13T14:14:13.764Z,97029
2018-02-13T14:16:42.103Z,97029
2018-02-13T14:19:10.345Z,97030
2018-02-13T14:21:38.645Z,97032
2018-02-13T14:24:06.942Z,97032
2018-02-13T14:26:35.961Z,97032
2018-02-13T14:29:04.261Z,97041
2018-02-13T14:31:32.548Z,97031
2018-02-13T14:34:00.860Z,97030
2018-02-13T14:36:29.265Z,97034
2018-02-13T14:38:58.283Z,97031
2018-02-13T14:41:26.678Z,97031
2018-02-13T14:43:54.919Z,97030
2018-02-13T14:46:23.174Z,97028
2018-02-13T14:48:51.500Z,97033
2018-02-13T14:51:19.737Z,97030
2018-02-13T14:53:48.777Z,97031
2018-02-13T14:56:16.992Z,97025
2018-02-13T14:58:45.274Z,97027
2018-02-13T15:01:14.294Z,97022
2018-02-13T15:03:42.607Z,97021
2018-02-13T15:06:10.845Z,97020
2018-02-13T15:08:39.823Z,97025
2018-02-13T15:11:08.795Z,97019
2018-02-13T15:13:37.023Z,97016
2018-02-13T15:16:05.262Z,97018
2018-02-13T15:18:35.637Z,97018
2018-02-13T15:21:03.861Z,97016
2018-02-13T15:23:32.079Z,97019
2018-02-13T15:26:00.305Z,97015
2018-02-13T15:28:28.603Z,97018
2018-02-13T15:30:57.545Z,97017
2018-02-13T15:33:25.763Z,97017
2018-02-13T15:35:53.996Z,97017
2018-02-13T15:38:22.207Z,97018
2018-02-13T15:40:50.422Z,97016
2018-02-13T15:43:18.704Z,97024
2018-02-13T15:45:46.960Z,97021
2018-02-13T15:48:15.902Z,97023
2018-02-13T15:50:44.085Z,97022
2018-02-13T15:53:12.337Z,97019
2018-02-13T15:55:40.498Z,97023
2018-02-13T15:58:08.697Z,97028
2018-02-13T16:00:36.883Z,97026
2018-02-13T16:03:05.051Z,97024
2018-02-13T16:05:33.221Z,97028
2018-02-13T16:08:01.415Z,97023
2018-02-13T16:10:29.603Z,97021
2018-02-13T16:12:57.795Z,97026
2018-02-13T16:15:26.739Z,97026
2018-02-13T16:17:54.929Z,97022
2018-02-13T16:20:23.144Z,97023
2018-02-13T16:22:52.078Z,97020
2018-02-13T16:25:20.272Z,97023
2018-02-13T16:27:48.467Z,97029
2018-02-13T16:30:16.650Z,97020
2018-02-13T16:32:45.606Z,97025
2018-02-13T16:35:13.801Z,97028
2018-02-13T16:37:41.992Z,97030
2018-02-13T16:40:10.975Z,97026
2018-02-13T16:42:39.180Z,97028
2018-02-13T16:45:07.356Z,97024
2018-02-13T16:47:35.549Z,97027
2018-02-13T16:50:03.708Z,97025
2018-02-13T16:52:31.905Z,97021
2018-02-13T16:55:00.072Z,97020
2018-02-13T16:57:28.258Z,97029
2018-02-13T16:59:56.428Z,97027
2018-02-13T17:02:24.591Z,97033
2018-02-13T17:04:52.744Z,97016
2018-02-13T17:07:20.922Z,97033
2018-02-13T17:09:49.090Z,97033
2018-02-13T17:12:18.034Z,97029
2018-02-13T17:14:46.247Z,97034
2018-02-13T17:17:15.187Z,97032
2018-02-13T17:19:43.359Z,97027
2018-02-13T17:22:11.528Z,97031
2018-02-13T17:24:39.703Z,97032
2018-02-13T17:27:07.922Z,97031
2018-02-13T17:29:36.094Z,97032
2018-02-13T17:32:04.300Z,97036
2018-02-13T17:34:33.243Z,97029
2018-02-13T17:37:01.423Z,97033
2018-02-13T17:39:30.355Z,97030
2018-02-13T17:41:58.536Z,97034
2018-02-13T17:44:26.719Z,97031
2018-02-13T17:46:54.897Z,97036
2018-02-13T17:49:23.065Z,97033
2018-02-13T17:51:51.260Z,97040
2018-02-13T17:54:19.457Z,97035
2018-02-13T17:56:48.402Z,97032
2018-02-13T17:59:16.587Z,97030
2018-02-13T18:01:44.789Z,97031
2018-02-13T18:04:12.962Z,97024
2018-02-13T18:06:44.077Z,97029
2018-02-13T18:09:12.238Z,97029
2018-02-13T18:11:41.179Z,97031
2018-02-13T18:14:09.396Z,97030
2018-02-13T18:16:38.342Z,97030
2018-02-13T18:19:06.528Z,97034
2018-02-13T18:21:34.691Z,97042
2018-02-13T18:24:02.891Z,97039
2018-02-13T18:26:31.061Z,97045
2018-02-13T18:28:59.246Z,97050
2018-02-13T18:31:27.442Z,97045
2018-02-13T18:33:56.421Z,97051
2018-02-13T18:36:24.663Z,97051
2018-02-13T18:38:52.871Z,97059
2018-02-13T18:41:21.834Z,97045
2018-02-13T18:43:50.014Z,97050
2018-02-13T18:46:18.209Z,97049
2018-02-13T18:48:46.433Z,97046
2018-02-13T18:51:14.602Z,97048
2018-02-13T18:53:42.831Z,97055
2018-02-13T18:56:11.029Z,97054
2018-02-13T18:58:39.963Z,97061
2018-02-13T19:01:08.142Z,97054
2018-02-13T19:03:36.326Z,97061
2018-02-13T20:28:02.228Z,97045
2018-02-13T20:30:30.425Z,97043
2018-02-13T20:32:59.393Z,97039
2018-02-13T20:35:27.613Z,97039
2018-02-13T20:37:55.808Z,97039
2018-02-13T20:40:23.986Z,97041
2018-02-13T20:42:52.186Z,97037
2018-02-13T20:45:20.526Z,97037
2018-02-13T20:47:48.729Z,97038
2018-02-13T20:50:16.937Z,97026
2018-02-13T20:52:45.129Z,97030
2018-02-13T20:55:14.139Z,97032
2018-02-13T20:57:42.331Z,97030
2018-02-13T21:00:10.563Z,97027
2018-02-13T21:02:39.559Z,97025
2018-02-13T21:05:09.433Z,97020
2018-02-13T21:07:37.639Z,97020
2018-02-13T21:10:05.844Z,97020
2018-02-13T21:12:34.063Z,97019
2018-02-13T21:15:02.241Z,97016
2018-02-13T21:17:30.452Z,97015
2018-02-13T21:19:59.403Z,97012
2018-02-13T21:22:27.605Z,97015
2018-02-13T21:24:55.807Z,97011
2018-02-13T21:27:23.986Z,97011
2018-02-13T21:29:52.170Z,97007
2018-02-13T21:32:20.461Z,97002
2018-02-13T21:34:48.704Z,97002
2018-02-13T21:37:17.757Z,96996
2018-02-13T21:39:45.962Z,97006
2018-02-13T21:42:14.948Z,97009
2018-02-13T21:44:43.169Z,97011
2018-02-13T21:47:11.373Z,97008
2018-02-13T21:49:39.576Z,97013
2018-02-13T21:52:07.806Z,97014
2018-02-13T21:54:36.036Z,97012
2018-02-13T21:57:05.027Z,97012
2018-02-13T21:59:33.995Z,97009
2018-02-13T22:02:02.195Z,97011
2018-02-13T22:04:31.214Z,97016
2018-02-13T22:06:59.402Z,97010
2018-02-13T22:09:27.601Z,97008
2018-02-13T22:11:55.813Z,97011
2018-02-13T22:14:24.769Z,97003
2018-02-13T22:16:52.963Z,97007
2018-02-13T22:19:21.264Z,97009
2018-02-13T22:21:50.229Z,97002
2018-02-13T22:24:18.504Z,97003
2018-02-13T22:26:46.685Z,97002
2018-02-13T22:29:15.554Z,97002
2018-02-13T22:31:43.744Z,97001
2018-02-13T22:34:12.707Z,96998
2018-02-13T22:36:40.911Z,96997
2018-02-13T22:39:09.126Z,96993
2018-02-13T22:41:38.081Z,96992
2018-02-13T22:44:07.095Z,96989
2018-02-13T22:46:35.286Z,96982
2018-02-13T22:49:04.238Z,96988
2018-02-13T22:51:32.458Z,96993
2018-02-13T22:54:01.407Z,96992
2018-02-13T22:56:29.603Z,96990
2018-02-13T22:58:57.802Z,96992
2018-02-13T23:01:26.800Z,96991
2018-02-13T23:03:54.999Z,96987
2018-02-13T23:06:23.203Z,96995
2018-02-13T23:08:51.406Z,96994
2018-02-13T23:11:20.372Z,96997
2018-02-13T23:13:48.550Z,96996
2018-02-13T23:16:16.758Z,96997
2018-02-13T23:18:45.713Z,96991
2018-02-13T23:21:13.901Z,96990
2018-02-13T23:23:42.088Z,96999
2018-02-13T23:26:10.261Z,96990
2018-02-13T23:28:38.439Z,96990
2018-02-13T23:31:07.407Z,96994
2018-02-13T23:33:35.603Z,96993
2018-02-13T23:36:03.781Z,96992
2018-02-13T23:38:32.725Z,96987
2018-02-13T23:41:00.906Z,96986
2018-02-13T23:43:29.089Z,96986
2018-02-13T23:45:57.297Z,96985
2018-02-13T23:48:25.486Z,96981
2018-02-13T23:50:54.434Z,96986
2018-02-13T23:53:23.377Z,96979
2018-02-13T23:55:52.318Z,96976
2018-02-13T23:58:20.515Z,96979
